Los Alamos, New Mexico
Current Conditions -  °F | °C
As of 7:15 AM on Saturday 25 Oct 2014 (Local Time) from KLAM Reporting Station
Clear Clear  
Wind Chill: 46°   Ceiling: Unl
Heat Index: 46°   Visibility: 10mi
Dew Point: 21°   Wind: 0mph
Humidity: 38%   Direction: NA
Pressure: 30.38"   Gusts: NA
Location:  35.88°N, 106.3°W
Report Text: KLAM 251315Z AUTO 00000KT 10SM CLR 08/M06 A3038 RMK AO2 T00751061
Loading
Personal Weather Stations






























Interactive Weather Map
Tropical Storm Tracking
New forecast layout! Learn more

10-Day Weather Forecast

Advertisements
Track Severe Weather on mobile